MSN weather

Dane County Regional Truax Field
Madison, Wisconsin, United States

Public forecast

Using degrees Fahrenheit for public forecast. Weather courtesy of forecast.io.

Current aviation weather report (METAR) for Dane County Regional Truax Field

Retrieved 2019/12/06 11:53 UTC (54 minutes ago):

KMSN 061153Z 35012G20KT 10SM BKN024 00/M04 A3016 RMK AO2 SLP224 T00001044 10033 20000 51032

Aviation forecast (TAF) for Dane County Regional Truax Field

Retrieved 2019/12/06 12:27 UTC (20 minutes ago):

TAF KMSN 061124Z 0612/0712 34011G20KT P6SM OVC023 FM061500 35010KT P6SM BKN025 FM061700 35010KT P6SM SCT035 FM062100 33006KT P6SM SKC FM070800 19005KT P6SM SCT120